Accueil
METAR-TAF:

METAR-TAF

Aéroports :

Pirassununga, São Paulo, Brésil

latitude: 21-59S, longitude: 047-20W, altitude: 597 m

Observation

Le bulletin a été fait il y a 3 heures et 51 minutes, à 02:00 UTC
Vent 2 kt de direction variable
Température 19°C
Humidité 78%
Pression 1017 hPa
Visibilité 10 km ou plus
pas de nuages en-dessous de 1500 mètres et pas de cumulonimbus.

METAR: SBYS 260200Z VRB02KT CAVOK 19/15 Q1017

Heure: 02:51 (05:51 UTC)

Prévision

Le bulletin a été fait il y a 8 heures et 51 minutes, à 21:00 UTC
Prévision valable du 26 à 00 UTC au 26 à 12 UTC
Vent 5 kt de sud
Visibilité: 8000 m
Evoluant progressivement
du 26 à 04 UTC au 26 à 06 UTC
Visibilité: 3000 m
brume

TAF: SBYS 252100Z 2600/2612 17005KT 8000 NSC TX23/2600Z TN14/2608Z BECMG 2604/2606 3000 BR RMK PEP

Observations et prévisions météorologiques de plus de 4000 aéroports (messages METAR et TAF).

Les stations disponibles sont représentées par des disques jaunes et rouges sur la carte.

Passer la souris dessus pour voir le nom de la station.

Cliquer dessus pour voir les observations et prévisions météorologiques.

Pour changer de carte: cliquez sur les boutons verts avec une croix noire pour zoomer, sur le bouton vert avec un tiret pour effectuer un zoom arrière, ou sur les flèches vertes pour les cartes adjacentes.


METAR-TAF: